createdAt,value
2018-08-03T00:02:20.053Z,25.60
2018-08-03T00:04:55.247Z,25.60
2018-08-03T00:07:30.748Z,25.60
2018-08-03T00:10:07.737Z,25.60
2018-08-03T00:12:43.571Z,25.50
2018-08-03T00:15:18.612Z,25.40
2018-08-03T00:17:54.213Z,25.40
2018-08-03T00:20:29.421Z,25.40
2018-08-03T00:23:04.755Z,25.40
2018-08-03T00:25:39.572Z,25.40
2018-08-03T00:28:15.268Z,25.30
2018-08-03T00:30:50.101Z,25.30
2018-08-03T00:33:24.865Z,25.30
2018-08-03T00:38:34.414Z,25.20
2018-08-03T00:41:09.348Z,25.10
2018-08-03T00:43:44.797Z,25.10
2018-08-03T00:46:19.854Z,25.00
2018-08-03T00:48:55.158Z,25.00
2018-08-03T00:51:30.286Z,25.00
2018-08-03T00:54:05.349Z,24.90
2018-08-03T00:56:40.990Z,25.00
2018-08-03T00:59:17.046Z,24.90
2018-08-03T01:01:52.210Z,25.00
2018-08-03T01:04:27.679Z,24.90
2018-08-03T01:07:02.742Z,24.90
2018-08-03T01:09:37.853Z,24.80
2018-08-03T01:12:14.751Z,24.80
2018-08-03T01:14:49.531Z,24.80
2018-08-03T01:17:24.699Z,24.80
2018-08-03T01:20:00.066Z,24.70
2018-08-03T01:22:35.042Z,24.70
2018-08-03T01:25:10.529Z,24.70
2018-08-03T01:27:45.874Z,24.70
2018-08-03T01:30:21.214Z,24.60
2018-08-03T01:32:56.293Z,24.60
2018-08-03T01:35:31.817Z,24.60
2018-08-03T01:38:07.222Z,24.60
2018-08-03T01:40:42.351Z,24.60
2018-08-03T01:43:17.354Z,24.50
2018-08-03T01:45:52.358Z,24.50
2018-08-03T01:48:27.358Z,24.40
2018-08-03T01:51:02.543Z,24.40
2018-08-03T01:53:42.311Z,24.40
2018-08-03T01:56:17.540Z,24.30
2018-08-03T01:58:52.965Z,24.20
2018-08-03T02:01:27.986Z,24.20
2018-08-03T02:04:03.272Z,24.20
2018-08-03T02:06:38.333Z,24.10
2018-08-03T02:09:13.402Z,24.10
2018-08-03T02:11:48.297Z,24.00
2018-08-03T02:14:23.439Z,24.00
2018-08-03T02:16:58.186Z,24.00
2018-08-03T02:19:33.736Z,24.00
2018-08-03T02:22:09.273Z,24.00
2018-08-03T02:24:44.586Z,24.00
2018-08-03T02:27:19.675Z,23.90
2018-08-03T02:29:55.098Z,23.90
2018-08-03T02:32:30.863Z,23.90
2018-08-03T02:35:06.160Z,24.00
2018-08-03T02:37:42.112Z,23.90
2018-08-03T02:40:17.143Z,23.80
2018-08-03T02:42:52.299Z,23.80
2018-08-03T02:45:28.323Z,23.80
2018-08-03T02:48:03.359Z,23.70
2018-08-03T02:50:38.423Z,23.80
2018-08-03T02:53:13.487Z,23.70
2018-08-03T02:55:48.518Z,23.70
2018-08-03T02:58:23.331Z,23.70
2018-08-03T03:00:58.184Z,23.70
2018-08-03T03:03:33.317Z,23.70
2018-08-03T03:06:08.176Z,23.70
2018-08-03T03:08:43.179Z,23.60
2018-08-03T03:11:19.162Z,23.60
2018-08-03T03:13:54.117Z,23.50
2018-08-03T03:16:29.742Z,23.60
2018-08-03T03:19:05.419Z,23.50
2018-08-03T03:21:40.189Z,23.50
2018-08-03T03:24:15.373Z,23.60
2018-08-03T03:26:50.334Z,23.60
2018-08-03T03:29:25.454Z,23.50
2018-08-03T03:32:00.520Z,23.50
2018-08-03T03:34:35.537Z,23.50
2018-08-03T03:37:10.503Z,23.60
2018-08-03T03:39:45.272Z,23.60
2018-08-03T03:42:20.145Z,23.60
2018-08-03T03:44:55.494Z,23.60
2018-08-03T03:47:30.664Z,23.60
2018-08-03T03:50:06.299Z,23.60
2018-08-03T03:52:41.209Z,23.50
2018-08-03T03:55:16.279Z,23.50
2018-08-03T03:57:51.814Z,23.40
2018-08-03T04:00:27.022Z,23.40
2018-08-03T04:03:01.986Z,23.40
2018-08-03T04:05:36.825Z,23.50
2018-08-03T04:08:12.263Z,23.40
2018-08-03T04:10:47.843Z,23.40
2018-08-03T04:13:22.870Z,23.30
2018-08-03T04:15:58.035Z,23.30
2018-08-03T04:18:33.047Z,23.20
2018-08-03T04:21:08.143Z,23.30
2018-08-03T04:23:44.212Z,23.20
2018-08-03T04:26:19.096Z,23.20
2018-08-03T04:28:54.264Z,23.20
2018-08-03T04:31:30.227Z,23.20
2018-08-03T04:34:06.661Z,23.20
2018-08-03T04:36:41.867Z,23.20
2018-08-03T04:41:51.961Z,23.30
2018-08-03T04:44:27.678Z,23.30
2018-08-03T04:47:02.370Z,23.30
2018-08-03T04:49:37.398Z,23.30
2018-08-03T04:52:12.422Z,23.40
2018-08-03T04:54:47.933Z,23.30
2018-08-03T04:57:23.861Z,23.30
2018-08-03T04:59:59.010Z,23.40
2018-08-03T05:02:34.884Z,23.40
2018-08-03T05:05:10.916Z,23.40
2018-08-03T05:07:46.165Z,23.40
2018-08-03T05:10:21.785Z,23.40
2018-08-03T05:12:57.070Z,23.40
2018-08-03T05:15:31.980Z,23.40
2018-08-03T05:18:07.575Z,23.50
2018-08-03T05:20:43.302Z,23.50
2018-08-03T05:23:18.404Z,23.60
2018-08-03T05:25:54.545Z,23.60
2018-08-03T05:28:29.559Z,23.50
2018-08-03T05:31:04.650Z,23.50
2018-08-03T05:33:40.057Z,23.60
2018-08-03T05:36:15.679Z,23.70
2018-08-03T05:38:51.949Z,23.60
2018-08-03T05:41:26.940Z,23.70
2018-08-03T05:44:01.957Z,23.60
2018-08-03T05:49:11.893Z,23.60
2018-08-03T05:51:47.275Z,23.60
2018-08-03T05:54:23.245Z,23.60
2018-08-03T05:56:59.328Z,23.70
2018-08-03T05:59:34.297Z,23.70
2018-08-03T06:02:09.385Z,23.80
2018-08-03T06:04:44.304Z,23.80
2018-08-03T06:07:20.184Z,23.80
2018-08-03T06:09:55.617Z,23.80
2018-08-03T06:12:30.611Z,23.80
2018-08-03T06:15:08.113Z,23.90
2018-08-03T06:17:43.815Z,24.00
2018-08-03T06:20:18.832Z,24.00
2018-08-03T06:22:54.207Z,24.00
2018-08-03T06:25:29.449Z,24.10
2018-08-03T06:28:05.092Z,24.10
2018-08-03T06:30:41.578Z,24.10
2018-08-03T06:33:17.013Z,24.20
2018-08-03T06:35:52.216Z,24.30
2018-08-03T06:38:28.323Z,24.40
2018-08-03T06:41:04.114Z,24.50
2018-08-03T06:43:39.384Z,24.40
2018-08-03T06:46:14.792Z,24.40
2018-08-03T06:48:49.993Z,24.40
2018-08-03T06:51:25.604Z,24.40
2018-08-03T06:54:01.084Z,24.40
2018-08-03T06:56:36.888Z,24.50
2018-08-03T07:01:41.735Z,24.60
2018-08-03T07:04:16.911Z,24.70
2018-08-03T07:06:52.155Z,24.70
2018-08-03T07:09:27.311Z,24.70
2018-08-03T07:12:03.400Z,24.80
2018-08-03T07:14:38.658Z,24.80
2018-08-03T07:17:14.063Z,24.90
2018-08-03T07:19:43.564Z,25.00
2018-08-03T07:22:19.021Z,25.00
2018-08-03T07:24:56.217Z,25.00
2018-08-03T07:27:31.734Z,25.00
2018-08-03T07:30:07.710Z,25.00
2018-08-03T07:32:42.996Z,25.10
2018-08-03T07:35:18.089Z,25.10
2018-08-03T07:37:53.406Z,25.20
2018-08-03T07:40:28.827Z,25.20
2018-08-03T07:43:04.285Z,25.20
2018-08-03T07:45:39.427Z,25.30
2018-08-03T07:48:16.677Z,25.30
2018-08-03T07:50:51.943Z,25.40
2018-08-03T07:53:27.280Z,25.40
2018-08-03T07:56:02.412Z,25.50
2018-08-03T07:58:38.053Z,25.50
2018-08-03T08:01:13.629Z,25.60
2018-08-03T08:03:44.119Z,25.60
2018-08-03T08:06:20.087Z,25.70
2018-08-03T08:09:02.702Z,25.70
2018-08-03T08:11:38.605Z,25.80
2018-08-03T08:14:13.781Z,25.90
2018-08-03T08:16:49.023Z,26.00
2018-08-03T08:19:24.297Z,26.00
2018-08-03T08:21:59.206Z,26.10
2018-08-03T08:24:29.169Z,26.10
2018-08-03T08:27:04.711Z,26.20
2018-08-03T08:29:40.046Z,26.20
2018-08-03T08:32:18.445Z,26.20
2018-08-03T08:34:48.103Z,26.30
2018-08-03T08:37:23.449Z,26.30
2018-08-03T08:39:58.538Z,26.40
2018-08-03T08:42:33.553Z,26.50
2018-08-03T08:45:09.691Z,26.50
2018-08-03T08:47:45.897Z,26.60
2018-08-03T08:50:20.765Z,26.70
2018-08-03T08:52:56.209Z,26.80
2018-08-03T08:55:31.307Z,26.90
2018-08-03T08:58:06.794Z,27.00
2018-08-03T09:00:42.315Z,27.00
2018-08-03T09:03:17.475Z,27.10
2018-08-03T09:05:52.528Z,27.10
2018-08-03T09:08:27.707Z,27.10
2018-08-03T09:11:03.642Z,27.20
2018-08-03T09:13:38.698Z,27.30
2018-08-03T09:16:13.779Z,27.40
2018-08-03T09:18:49.176Z,27.60
2018-08-03T09:21:29.426Z,27.70
2018-08-03T09:24:04.864Z,27.70
2018-08-03T09:26:40.702Z,27.60
2018-08-03T09:29:15.699Z,27.80
2018-08-03T09:31:50.858Z,27.90
2018-08-03T09:34:25.934Z,28.00
2018-08-03T09:37:01.211Z,28.00
2018-08-03T09:39:36.435Z,28.10
2018-08-03T09:42:11.282Z,28.10
2018-08-03T09:44:46.451Z,28.20
2018-08-03T09:47:21.502Z,28.40
2018-08-03T09:49:56.545Z,28.30
2018-08-03T09:52:32.342Z,28.30
2018-08-03T09:55:07.754Z,28.30
2018-08-03T09:57:43.181Z,28.40
2018-08-03T10:00:22.792Z,28.70
2018-08-03T10:02:57.875Z,28.70
2018-08-03T10:05:33.655Z,28.70
2018-08-03T10:08:08.573Z,28.70
2018-08-03T10:10:43.678Z,28.80
2018-08-03T10:13:19.082Z,28.90
2018-08-03T10:15:59.164Z,28.90
2018-08-03T10:18:34.849Z,28.90
2018-08-03T10:21:09.875Z,28.90
2018-08-03T10:23:45.024Z,28.80
2018-08-03T10:26:20.156Z,28.90
2018-08-03T10:28:56.052Z,29.00
2018-08-03T10:31:31.002Z,29.30
2018-08-03T10:34:06.196Z,29.40
2018-08-03T10:36:41.626Z,29.50
2018-08-03T10:39:16.833Z,29.50
2018-08-03T10:41:51.749Z,29.50
2018-08-03T10:44:27.498Z,29.50
2018-08-03T10:47:02.601Z,29.50
2018-08-03T10:49:37.678Z,29.60
2018-08-03T10:52:12.857Z,29.70
2018-08-03T10:54:48.196Z,29.70
2018-08-03T10:57:18.130Z,29.80
2018-08-03T10:59:48.120Z,29.90
2018-08-03T11:04:47.446Z,29.90
2018-08-03T11:07:22.161Z,30.20
2018-08-03T11:09:57.758Z,30.10
2018-08-03T11:12:32.855Z,30.10
2018-08-03T11:17:42.599Z,30.20
2018-08-03T11:20:18.089Z,30.10
2018-08-03T11:22:53.111Z,30.20
2018-08-03T11:25:28.518Z,30.40
2018-08-03T11:28:04.040Z,30.40
2018-08-03T11:30:38.911Z,30.60
2018-08-03T11:33:13.987Z,30.60
2018-08-03T11:35:49.663Z,30.60
2018-08-03T11:38:24.706Z,30.50
2018-08-03T11:41:00.002Z,30.60
2018-08-03T11:43:35.669Z,30.60
2018-08-03T11:46:10.877Z,30.70
2018-08-03T11:48:45.810Z,30.70
2018-08-03T11:51:21.184Z,30.70
2018-08-03T11:53:51.437Z,30.80
2018-08-03T11:56:21.304Z,31.10
2018-08-03T11:58:51.002Z,31.10
2018-08-03T12:01:20.304Z,31.10
2018-08-03T12:03:50.016Z,31.10
2018-08-03T12:06:19.258Z,30.90
2018-08-03T12:08:49.923Z,31.00
2018-08-03T12:11:19.365Z,31.20
2018-08-03T12:13:48.734Z,31.40
2018-08-03T12:16:18.281Z,31.50
2018-08-03T12:18:48.308Z,31.50
2018-08-03T12:21:18.494Z,31.50
2018-08-03T12:23:48.920Z,31.50
2018-08-03T12:26:18.874Z,31.60
2018-08-03T12:28:48.381Z,31.80
2018-08-03T12:31:17.870Z,31.80
2018-08-03T12:33:48.029Z,31.70
2018-08-03T12:36:17.627Z,31.50
2018-08-03T12:38:47.931Z,31.80
2018-08-03T12:41:18.386Z,31.70
2018-08-03T12:43:47.826Z,31.80
2018-08-03T12:46:18.412Z,31.80
2018-08-03T12:48:51.457Z,31.70
2018-08-03T12:51:23.283Z,31.80
2018-08-03T12:53:53.905Z,31.90
2018-08-03T12:56:24.439Z,31.90
2018-08-03T12:58:54.470Z,31.90
2018-08-03T13:01:24.721Z,32.10
2018-08-03T13:03:54.984Z,32.00
2018-08-03T13:06:30.806Z,32.20
2018-08-03T13:09:07.464Z,32.30
2018-08-03T13:11:43.919Z,32.30
2018-08-03T13:14:19.818Z,32.30
2018-08-03T13:16:55.425Z,32.30
2018-08-03T13:19:30.846Z,32.40
2018-08-03T13:22:11.255Z,32.40
2018-08-03T13:24:48.030Z,32.50
2018-08-03T13:27:24.035Z,32.70
2018-08-03T13:29:59.648Z,32.80
2018-08-03T13:32:35.200Z,32.50
2018-08-03T13:35:10.874Z,32.50
2018-08-03T13:37:46.741Z,32.40
2018-08-03T13:40:22.324Z,32.30
2018-08-03T13:42:58.161Z,32.40
2018-08-03T13:45:33.211Z,32.30
2018-08-03T13:48:08.365Z,32.20
2018-08-03T13:50:43.435Z,32.10
2018-08-03T13:53:19.201Z,32.10
2018-08-03T13:55:54.722Z,32.00
2018-08-03T13:58:29.752Z,32.10
2018-08-03T14:01:16.678Z,32.00
2018-08-03T14:03:54.122Z,31.90
2018-08-03T14:06:30.144Z,31.90
2018-08-03T14:09:07.375Z,31.90
2018-08-03T14:11:42.302Z,32.10
2018-08-03T14:14:17.980Z,32.40
2018-08-03T14:16:53.918Z,32.70
2018-08-03T14:19:29.505Z,32.90
2018-08-03T14:22:05.866Z,33.00
2018-08-03T14:24:41.940Z,33.30
2018-08-03T14:27:17.585Z,33.50
2018-08-03T14:29:53.238Z,33.60
2018-08-03T14:32:28.684Z,33.80
2018-08-03T14:35:04.430Z,33.90
2018-08-03T14:40:15.629Z,33.80
2018-08-03T14:42:51.169Z,33.60
2018-08-03T14:45:27.268Z,33.40
2018-08-03T14:48:02.774Z,33.40
2018-08-03T14:50:38.504Z,33.70
2018-08-03T14:53:14.466Z,34.00
2018-08-03T14:55:50.190Z,34.00
2018-08-03T14:58:26.070Z,34.20
2018-08-03T15:01:02.847Z,34.30
2018-08-03T15:03:38.810Z,34.50
2018-08-03T15:06:14.877Z,34.60
2018-08-03T15:08:50.511Z,34.60
2018-08-03T15:11:27.369Z,34.60
2018-08-03T15:14:03.618Z,34.70
2018-08-03T15:16:40.917Z,34.70
2018-08-03T15:19:16.634Z,34.50
2018-08-03T15:21:52.494Z,34.60
2018-08-03T15:24:28.117Z,34.80
2018-08-03T15:27:04.320Z,34.70
2018-08-03T15:29:39.983Z,34.70
2018-08-03T15:32:16.659Z,34.50
2018-08-03T15:34:52.248Z,34.60
2018-08-03T15:37:28.007Z,34.60
2018-08-03T15:40:03.753Z,34.50
2018-08-03T15:42:39.071Z,34.40
2018-08-03T15:45:14.256Z,34.20
2018-08-03T15:47:50.535Z,34.20
2018-08-03T15:50:26.768Z,34.40
2018-08-03T15:53:02.718Z,34.60
2018-08-03T15:55:38.245Z,34.60
2018-08-03T15:58:13.744Z,34.60
2018-08-03T16:00:49.174Z,34.60
2018-08-03T16:03:25.149Z,34.40
2018-08-03T16:06:00.292Z,34.40
2018-08-03T16:08:36.063Z,34.60
2018-08-03T16:11:12.033Z,34.70
2018-08-03T16:13:47.438Z,34.80
2018-08-03T16:16:23.244Z,34.80
2018-08-03T16:18:58.921Z,34.70
2018-08-03T16:21:34.800Z,34.80
2018-08-03T16:24:11.743Z,34.90
2018-08-03T16:26:47.545Z,34.90
2018-08-03T16:29:23.238Z,34.90
2018-08-03T16:31:59.050Z,35.00
2018-08-03T16:34:34.595Z,35.10
2018-08-03T16:39:45.673Z,34.90
2018-08-03T16:42:21.703Z,34.90
2018-08-03T16:44:57.829Z,35.00
2018-08-03T16:47:33.627Z,35.00
2018-08-03T16:50:09.527Z,34.80
2018-08-03T16:52:45.052Z,34.80
2018-08-03T16:55:20.740Z,34.80
2018-08-03T16:57:56.203Z,34.70
2018-08-03T17:00:32.179Z,34.60
2018-08-03T17:03:07.946Z,34.60
2018-08-03T17:05:43.966Z,34.60
2018-08-03T17:08:20.246Z,34.60
2018-08-03T17:10:56.126Z,34.60
2018-08-03T17:13:31.654Z,34.50
2018-08-03T17:16:07.961Z,34.50
2018-08-03T17:18:43.650Z,34.40
2018-08-03T17:21:20.253Z,34.30
2018-08-03T17:23:56.478Z,34.20
2018-08-03T17:26:32.325Z,34.20
2018-08-03T17:29:08.509Z,34.10
2018-08-03T17:31:50.248Z,34.10
2018-08-03T17:34:25.930Z,34.00
2018-08-03T17:37:01.519Z,33.90
2018-08-03T17:39:37.927Z,33.90
2018-08-03T17:42:13.747Z,33.80
2018-08-03T17:44:49.386Z,33.80
2018-08-03T17:47:25.075Z,33.70
2018-08-03T17:50:01.019Z,33.70
2018-08-03T17:52:36.990Z,33.60
2018-08-03T17:55:12.478Z,33.60
2018-08-03T17:57:48.565Z,33.40
2018-08-03T18:00:24.611Z,33.40
2018-08-03T18:03:00.573Z,33.30
2018-08-03T18:05:36.426Z,33.10
2018-08-03T18:08:12.427Z,33.00
2018-08-03T18:10:47.991Z,33.00
2018-08-03T18:13:23.675Z,32.90
2018-08-03T18:15:58.991Z,32.80
2018-08-03T18:18:34.707Z,32.80
2018-08-03T18:21:10.275Z,32.70
2018-08-03T18:23:47.020Z,32.70
2018-08-03T18:26:23.030Z,32.60
2018-08-03T18:28:58.598Z,32.60
2018-08-03T18:31:34.612Z,32.40
2018-08-03T18:34:10.390Z,32.40
2018-08-03T18:36:46.296Z,32.30
2018-08-03T18:39:21.351Z,32.30
2018-08-03T18:41:56.214Z,32.20
2018-08-03T18:44:32.449Z,32.10
2018-08-03T18:47:07.831Z,32.10
2018-08-03T18:49:43.260Z,32.00
2018-08-03T18:52:13.393Z,31.90
2018-08-03T18:54:43.819Z,31.90
2018-08-03T18:57:13.654Z,31.80
2018-08-03T18:59:44.032Z,31.70
2018-08-03T19:02:13.561Z,31.70
2018-08-03T19:04:43.333Z,31.60
2018-08-03T19:07:12.908Z,31.60
2018-08-03T19:09:43.107Z,31.50
2018-08-03T19:12:13.004Z,31.40
2018-08-03T19:14:50.326Z,31.40
2018-08-03T19:17:27.731Z,31.30
2018-08-03T19:20:03.739Z,31.30
2018-08-03T19:22:38.886Z,31.20
2018-08-03T19:25:14.198Z,31.10
2018-08-03T19:27:49.065Z,31.00
2018-08-03T19:30:24.367Z,30.90
2018-08-03T19:32:59.435Z,30.90
2018-08-03T19:35:35.238Z,30.90
2018-08-03T19:38:10.320Z,30.80
2018-08-03T19:40:46.358Z,30.80
2018-08-03T19:43:21.610Z,30.70
2018-08-03T19:45:56.952Z,30.70
2018-08-03T19:48:32.333Z,30.70
2018-08-03T19:51:07.751Z,30.60
2018-08-03T19:53:42.860Z,30.60
2018-08-03T19:56:18.089Z,30.60
2018-08-03T20:01:28.191Z,30.50
2018-08-03T20:04:03.118Z,30.40
2018-08-03T20:06:38.501Z,30.40
2018-08-03T20:09:13.916Z,30.30
2018-08-03T20:11:49.038Z,30.30
2018-08-03T20:14:24.172Z,30.30
2018-08-03T20:16:59.444Z,30.20
2018-08-03T20:19:34.399Z,30.20
2018-08-03T20:22:16.962Z,30.10
2018-08-03T20:24:46.715Z,30.10
2018-08-03T20:27:21.626Z,30.10
2018-08-03T20:29:56.645Z,30.10
2018-08-03T20:32:32.263Z,30.00
2018-08-03T20:35:07.434Z,30.00
2018-08-03T20:37:45.921Z,30.00
2018-08-03T20:40:20.837Z,29.90
2018-08-03T20:42:56.098Z,29.90
2018-08-03T20:45:31.208Z,29.90
2018-08-03T20:48:06.277Z,29.90
2018-08-03T20:50:41.861Z,29.80
2018-08-03T20:53:17.067Z,29.80
2018-08-03T20:55:52.604Z,29.80
2018-08-03T20:58:27.803Z,29.80
2018-08-03T21:01:02.924Z,29.70
2018-08-03T21:03:38.052Z,29.60
2018-08-03T21:06:13.576Z,29.60
2018-08-03T21:08:49.228Z,29.50
2018-08-03T21:11:24.545Z,29.50
2018-08-03T21:13:59.746Z,29.40
2018-08-03T21:19:10.701Z,29.30
2018-08-03T21:21:45.583Z,29.30
2018-08-03T21:24:20.947Z,29.30
2018-08-03T21:26:56.358Z,29.30
2018-08-03T21:29:31.206Z,29.30
2018-08-03T21:32:06.628Z,29.30
2018-08-03T21:34:41.478Z,29.30
2018-08-03T21:37:16.648Z,29.30
2018-08-03T21:39:51.478Z,29.20
2018-08-03T21:42:26.488Z,29.20
2018-08-03T21:45:01.685Z,29.20
2018-08-03T21:47:37.607Z,29.10
2018-08-03T21:50:12.577Z,29.00
2018-08-03T21:52:47.611Z,29.00
2018-08-03T21:55:23.135Z,29.00
2018-08-03T21:57:58.377Z,28.90
2018-08-03T22:00:33.447Z,28.90
2018-08-03T22:03:08.614Z,28.90
2018-08-03T22:05:44.387Z,28.80
2018-08-03T22:08:19.612Z,28.70
2018-08-03T22:10:54.710Z,28.70
2018-08-03T22:13:30.178Z,28.70
2018-08-03T22:16:05.802Z,28.70
2018-08-03T22:18:40.570Z,28.60
2018-08-03T22:21:15.798Z,28.60
2018-08-03T22:23:51.207Z,28.50
2018-08-03T22:26:26.159Z,28.50
2018-08-03T22:31:36.560Z,28.40
2018-08-03T22:34:11.803Z,28.30
2018-08-03T22:36:46.976Z,28.40
2018-08-03T22:39:21.634Z,28.30
2018-08-03T22:41:56.730Z,28.30
2018-08-03T22:44:32.419Z,28.30
2018-08-03T22:47:07.488Z,28.30
2018-08-03T22:49:42.339Z,28.30
2018-08-03T22:52:18.787Z,28.30
2018-08-03T22:54:54.278Z,28.20
2018-08-03T22:57:29.504Z,28.30
2018-08-03T23:00:05.207Z,28.20
2018-08-03T23:02:40.915Z,28.20
2018-08-03T23:05:15.835Z,28.20
2018-08-03T23:07:51.244Z,28.20
2018-08-03T23:10:26.465Z,28.10
2018-08-03T23:13:01.489Z,28.10
2018-08-03T23:15:36.852Z,28.10
2018-08-03T23:18:11.981Z,28.00
2018-08-03T23:20:47.005Z,28.10
2018-08-03T23:23:22.223Z,28.00
2018-08-03T23:25:57.517Z,28.00
2018-08-03T23:28:32.576Z,28.00
2018-08-03T23:31:08.084Z,28.00
2018-08-03T23:33:43.843Z,28.00
2018-08-03T23:36:18.809Z,28.00
2018-08-03T23:38:53.957Z,27.90
2018-08-03T23:41:29.299Z,27.90
2018-08-03T23:44:04.606Z,27.90
2018-08-03T23:46:39.476Z,27.90
2018-08-03T23:49:14.548Z,27.80
2018-08-03T23:51:49.724Z,27.80
2018-08-03T23:54:24.927Z,27.80
2018-08-03T23:57:00.318Z,27.80
2018-08-03T23:59:35.051Z,27.70
